sensor_id;sensor_type;location;lat;lon;timestamp;temperature;humidity
21823;DHT22;11074;48.596;9.238;2023-02-07T00:01:19;2.20;99.90
21823;DHT22;11074;48.596;9.238;2023-02-07T00:03:46;2.20;99.90
21823;DHT22;11074;48.596;9.238;2023-02-07T00:06:18;2.20;99.90
21823;DHT22;11074;48.596;9.238;2023-02-07T00:08:47;2.10;99.90
21823;DHT22;11074;48.596;9.238;2023-02-07T00:11:16;2.00;99.90
21823;DHT22;11074;48.596;9.238;2023-02-07T00:13:46;2.00;99.90
21823;DHT22;11074;48.596;9.238;2023-02-07T00:16:13;1.90;99.90
21823;DHT22;11074;48.596;9.238;2023-02-07T00:18:39;1.90;99.90
21823;DHT22;11074;48.596;9.238;2023-02-07T00:21:10;1.90;99.90
21823;DHT22;11074;48.596;9.238;2023-02-07T00:23:39;1.90;99.90
21823;DHT22;11074;48.596;9.238;2023-02-07T00:26:05;1.90;99.90
21823;DHT22;11074;48.596;9.238;2023-02-07T00:28:32;2.00;99.90
21823;DHT22;11074;48.596;9.238;2023-02-07T00:31:10;1.90;99.90
21823;DHT22;11074;48.596;9.238;2023-02-07T00:33:42;1.90;99.90
21823;DHT22;11074;48.596;9.238;2023-02-07T00:36:12;2.00;99.90
21823;DHT22;11074;48.596;9.238;2023-02-07T00:38:39;2.00;99.90
21823;DHT22;11074;48.596;9.238;2023-02-07T00:41:06;1.90;99.90
21823;DHT22;11074;48.596;9.238;2023-02-07T00:43:32;2.00;99.90
21823;DHT22;11074;48.596;9.238;2023-02-07T00:45:59;2.00;99.90
21823;DHT22;11074;48.596;9.238;2023-02-07T00:48:27;2.00;99.90
21823;DHT22;11074;48.596;9.238;2023-02-07T00:50:55;1.90;99.90
21823;DHT22;11074;48.596;9.238;2023-02-07T00:53:21;1.80;99.90
21823;DHT22;11074;48.596;9.238;2023-02-07T00:55:47;1.80;99.90
21823;DHT22;11074;48.596;9.238;2023-02-07T00:58:13;1.80;99.90
21823;DHT22;11074;48.596;9.238;2023-02-07T01:00:39;1.70;99.90
21823;DHT22;11074;48.596;9.238;2023-02-07T01:03:04;1.60;99.90
21823;DHT22;11074;48.596;9.238;2023-02-07T01:05:30;1.60;99.90
21823;DHT22;11074;48.596;9.238;2023-02-07T01:07:56;1.70;99.90
21823;DHT22;11074;48.596;9.238;2023-02-07T01:10:22;1.70;99.90
21823;DHT22;11074;48.596;9.238;2023-02-07T01:12:49;1.70;99.90
21823;DHT22;11074;48.596;9.238;2023-02-07T01:15:15;1.70;99.90
21823;DHT22;11074;48.596;9.238;2023-02-07T01:17:41;1.70;99.90
21823;DHT22;11074;48.596;9.238;2023-02-07T01:20:07;1.70;99.90
21823;DHT22;11074;48.596;9.238;2023-02-07T01:22:33;1.70;99.90
21823;DHT22;11074;48.596;9.238;2023-02-07T01:24:59;1.60;99.90
21823;DHT22;11074;48.596;9.238;2023-02-07T01:27:25;1.60;99.90
21823;DHT22;11074;48.596;9.238;2023-02-07T01:29:50;1.70;99.90
21823;DHT22;11074;48.596;9.238;2023-02-07T01:32:16;1.60;99.90
21823;DHT22;11074;48.596;9.238;2023-02-07T01:34:42;1.70;99.90
21823;DHT22;11074;48.596;9.238;2023-02-07T01:37:07;1.70;99.90
21823;DHT22;11074;48.596;9.238;2023-02-07T01:39:33;1.60;99.90
21823;DHT22;11074;48.596;9.238;2023-02-07T01:41:59;1.70;99.90
21823;DHT22;11074;48.596;9.238;2023-02-07T01:46:51;1.70;99.90
21823;DHT22;11074;48.596;9.238;2023-02-07T01:49:26;1.60;99.90
21823;DHT22;11074;48.596;9.238;2023-02-07T01:52:02;1.60;99.90
21823;DHT22;11074;48.596;9.238;2023-02-07T01:54:32;1.60;99.90
21823;DHT22;11074;48.596;9.238;2023-02-07T01:57:08;1.50;99.90
21823;DHT22;11074;48.596;9.238;2023-02-07T01:59:37;1.50;99.90
21823;DHT22;11074;48.596;9.238;2023-02-07T02:02:09;1.50;99.90
21823;DHT22;11074;48.596;9.238;2023-02-07T02:04:38;1.50;99.90
21823;DHT22;11074;48.596;9.238;2023-02-07T02:07:07;1.40;99.90
21823;DHT22;11074;48.596;9.238;2023-02-07T02:09:36;1.40;99.90
21823;DHT22;11074;48.596;9.238;2023-02-07T02:12:22;1.30;99.90
21823;DHT22;11074;48.596;9.238;2023-02-07T02:15:23;1.20;99.90
21823;DHT22;11074;48.596;9.238;2023-02-07T02:24:16;1.20;99.90
21823;DHT22;11074;48.596;9.238;2023-02-07T02:39:16;1.00;99.90
21823;DHT22;11074;48.596;9.238;2023-02-07T02:42:26;1.10;99.90
21823;DHT22;11074;48.596;9.238;2023-02-07T02:45:08;1.10;99.90
21823;DHT22;11074;48.596;9.238;2023-02-07T02:47:43;1.10;99.90
21823;DHT22;11074;48.596;9.238;2023-02-07T02:50:19;1.10;99.90
21823;DHT22;11074;48.596;9.238;2023-02-07T02:52:47;1.10;99.90
21823;DHT22;11074;48.596;9.238;2023-02-07T02:55:13;1.10;99.90
21823;DHT22;11074;48.596;9.238;2023-02-07T02:57:59;1.10;99.90
21823;DHT22;11074;48.596;9.238;2023-02-07T03:00:54;1.10;99.90
21823;DHT22;11074;48.596;9.238;2023-02-07T03:10:24;1.20;99.90
21823;DHT22;11074;48.596;9.238;2023-02-07T03:13:13;1.30;99.90
21823;DHT22;11074;48.596;9.238;2023-02-07T03:16:10;1.30;99.90
21823;DHT22;11074;48.596;9.238;2023-02-07T03:18:48;1.30;99.90
21823;DHT22;11074;48.596;9.238;2023-02-07T03:21:28;1.30;99.90
21823;DHT22;11074;48.596;9.238;2023-02-07T03:23:59;1.30;99.90
21823;DHT22;11074;48.596;9.238;2023-02-07T03:26:28;1.30;99.90
21823;DHT22;11074;48.596;9.238;2023-02-07T03:28:56;1.20;99.90
21823;DHT22;11074;48.596;9.238;2023-02-07T03:31:25;1.20;99.90
21823;DHT22;11074;48.596;9.238;2023-02-07T03:33:58;1.10;99.90
21823;DHT22;11074;48.596;9.238;2023-02-07T03:36:32;0.90;99.90
21823;DHT22;11074;48.596;9.238;2023-02-07T03:39:06;0.90;99.90
21823;DHT22;11074;48.596;9.238;2023-02-07T03:41:41;0.80;99.90
21823;DHT22;11074;48.596;9.238;2023-02-07T03:44:12;0.70;99.90
21823;DHT22;11074;48.596;9.238;2023-02-07T03:46:40;0.70;99.90
21823;DHT22;11074;48.596;9.238;2023-02-07T03:49:06;0.70;99.90
21823;DHT22;11074;48.596;9.238;2023-02-07T03:51:33;0.80;99.90
21823;DHT22;11074;48.596;9.238;2023-02-07T03:53:59;0.80;99.90
21823;DHT22;11074;48.596;9.238;2023-02-07T03:56:25;0.80;99.90
21823;DHT22;11074;48.596;9.238;2023-02-07T03:58:50;0.90;99.90
21823;DHT22;11074;48.596;9.238;2023-02-07T04:01:16;0.90;99.90
21823;DHT22;11074;48.596;9.238;2023-02-07T04:03:42;0.90;99.90
21823;DHT22;11074;48.596;9.238;2023-02-07T04:06:08;0.80;99.90
21823;DHT22;11074;48.596;9.238;2023-02-07T04:08:33;0.70;99.90
21823;DHT22;11074;48.596;9.238;2023-02-07T04:11:00;0.70;99.90
21823;DHT22;11074;48.596;9.238;2023-02-07T04:13:28;0.70;99.90
21823;DHT22;11074;48.596;9.238;2023-02-07T04:15:55;0.70;99.90
21823;DHT22;11074;48.596;9.238;2023-02-07T04:18:21;0.80;99.90
21823;DHT22;11074;48.596;9.238;2023-02-07T04:20:46;0.80;99.90
21823;DHT22;11074;48.596;9.238;2023-02-07T04:23:12;0.80;99.90
21823;DHT22;11074;48.596;9.238;2023-02-07T04:25:38;0.80;99.90
21823;DHT22;11074;48.596;9.238;2023-02-07T04:28:04;0.90;99.90
21823;DHT22;11074;48.596;9.238;2023-02-07T04:30:30;0.80;99.90
21823;DHT22;11074;48.596;9.238;2023-02-07T04:32:56;0.90;99.90
21823;DHT22;11074;48.596;9.238;2023-02-07T04:35:22;0.80;99.90
21823;DHT22;11074;48.596;9.238;2023-02-07T04:37:48;0.90;99.90
21823;DHT22;11074;48.596;9.238;2023-02-07T04:40:14;0.80;99.90
21823;DHT22;11074;48.596;9.238;2023-02-07T04:42:40;0.70;99.90
21823;DHT22;11074;48.596;9.238;2023-02-07T04:45:06;0.70;99.90
21823;DHT22;11074;48.596;9.238;2023-02-07T04:47:31;0.70;99.90
21823;DHT22;11074;48.596;9.238;2023-02-07T04:49:58;0.60;99.90
21823;DHT22;11074;48.596;9.238;2023-02-07T04:52:24;0.50;99.90
21823;DHT22;11074;48.596;9.238;2023-02-07T04:54:49;0.60;99.90
21823;DHT22;11074;48.596;9.238;2023-02-07T04:57:15;0.60;99.90
21823;DHT22;11074;48.596;9.238;2023-02-07T04:59:41;0.60;99.90
21823;DHT22;11074;48.596;9.238;2023-02-07T05:02:07;0.60;99.90
21823;DHT22;11074;48.596;9.238;2023-02-07T05:04:32;0.60;99.90
21823;DHT22;11074;48.596;9.238;2023-02-07T05:06:58;0.60;99.90
21823;DHT22;11074;48.596;9.238;2023-02-07T05:09:24;0.60;99.90
21823;DHT22;11074;48.596;9.238;2023-02-07T05:11:50;0.60;99.90
21823;DHT22;11074;48.596;9.238;2023-02-07T05:14:16;0.60;99.90
21823;DHT22;11074;48.596;9.238;2023-02-07T05:16:41;0.60;99.90
21823;DHT22;11074;48.596;9.238;2023-02-07T05:19:08;0.60;99.90
21823;DHT22;11074;48.596;9.238;2023-02-07T05:21:34;0.60;99.90
21823;DHT22;11074;48.596;9.238;2023-02-07T05:24:00;0.50;99.90
21823;DHT22;11074;48.596;9.238;2023-02-07T05:26:26;0.50;99.90
21823;DHT22;11074;48.596;9.238;2023-02-07T05:28:51;0.40;99.90
21823;DHT22;11074;48.596;9.238;2023-02-07T05:31:17;0.50;99.90
21823;DHT22;11074;48.596;9.238;2023-02-07T05:33:43;0.40;99.90
21823;DHT22;11074;48.596;9.238;2023-02-07T05:36:09;0.40;99.90
21823;DHT22;11074;48.596;9.238;2023-02-07T05:38:34;0.40;99.90
21823;DHT22;11074;48.596;9.238;2023-02-07T05:41:00;0.40;99.90
21823;DHT22;11074;48.596;9.238;2023-02-07T05:43:26;0.30;99.90
21823;DHT22;11074;48.596;9.238;2023-02-07T05:45:51;0.10;99.90
21823;DHT22;11074;48.596;9.238;2023-02-07T05:48:17;0.00;99.90
21823;DHT22;11074;48.596;9.238;2023-02-07T05:50:43;0.00;99.90
21823;DHT22;11074;48.596;9.238;2023-02-07T05:53:09;0.00;99.90
21823;DHT22;11074;48.596;9.238;2023-02-07T05:55:35;0.10;99.90
21823;DHT22;11074;48.596;9.238;2023-02-07T05:58:01;0.10;99.90
21823;DHT22;11074;48.596;9.238;2023-02-07T06:00:27;-0.10;99.90
21823;DHT22;11074;48.596;9.238;2023-02-07T06:02:53;0.00;99.90
21823;DHT22;11074;48.596;9.238;2023-02-07T06:05:19;0.10;99.90
21823;DHT22;11074;48.596;9.238;2023-02-07T06:07:45;0.10;99.90
21823;DHT22;11074;48.596;9.238;2023-02-07T06:10:11;0.10;99.90
21823;DHT22;11074;48.596;9.238;2023-02-07T06:12:37;0.10;99.90
21823;DHT22;11074;48.596;9.238;2023-02-07T06:15:04;0.10;99.90
21823;DHT22;11074;48.596;9.238;2023-02-07T06:17:30;0.20;99.90
21823;DHT22;11074;48.596;9.238;2023-02-07T06:19:56;0.20;99.90
21823;DHT22;11074;48.596;9.238;2023-02-07T06:22:22;0.20;99.90
21823;DHT22;11074;48.596;9.238;2023-02-07T06:24:49;0.10;99.90
21823;DHT22;11074;48.596;9.238;2023-02-07T06:27:14;0.10;99.90
21823;DHT22;11074;48.596;9.238;2023-02-07T06:29:40;0.10;99.90
21823;DHT22;11074;48.596;9.238;2023-02-07T06:32:06;0.10;99.90
21823;DHT22;11074;48.596;9.238;2023-02-07T06:34:31;0.00;99.90
21823;DHT22;11074;48.596;9.238;2023-02-07T06:36:57;0.00;99.90
21823;DHT22;11074;48.596;9.238;2023-02-07T06:39:23;0.10;99.90
21823;DHT22;11074;48.596;9.238;2023-02-07T06:41:48;0.10;99.90
21823;DHT22;11074;48.596;9.238;2023-02-07T06:44:15;0.00;99.90
21823;DHT22;11074;48.596;9.238;2023-02-07T06:46:41;0.00;99.90
21823;DHT22;11074;48.596;9.238;2023-02-07T06:49:07;-0.20;99.90
21823;DHT22;11074;48.596;9.238;2023-02-07T06:51:32;-0.30;99.90
21823;DHT22;11074;48.596;9.238;2023-02-07T06:53:58;-0.40;99.90
21823;DHT22;11074;48.596;9.238;2023-02-07T06:56:25;-0.30;99.90
21823;DHT22;11074;48.596;9.238;2023-02-07T06:58:51;-0.30;99.90
21823;DHT22;11074;48.596;9.238;2023-02-07T07:01:17;-0.20;99.90
21823;DHT22;11074;48.596;9.238;2023-02-07T07:03:45;-0.10;99.90
21823;DHT22;11074;48.596;9.238;2023-02-07T07:06:11;-0.20;99.90
21823;DHT22;11074;48.596;9.238;2023-02-07T07:08:37;-0.10;99.90
21823;DHT22;11074;48.596;9.238;2023-02-07T07:11:03;-0.10;99.90
21823;DHT22;11074;48.596;9.238;2023-02-07T07:13:29;-0.30;99.90
21823;DHT22;11074;48.596;9.238;2023-02-07T07:15:54;-0.30;99.90
21823;DHT22;11074;48.596;9.238;2023-02-07T07:18:20;-0.20;99.90
21823;DHT22;11074;48.596;9.238;2023-02-07T07:20:46;-0.20;99.90
21823;DHT22;11074;48.596;9.238;2023-02-07T07:23:16;-0.20;99.90
21823;DHT22;11074;48.596;9.238;2023-02-07T07:25:42;-0.10;99.90
21823;DHT22;11074;48.596;9.238;2023-02-07T07:28:07;0.00;99.90
21823;DHT22;11074;48.596;9.238;2023-02-07T07:30:33;0.00;99.90
21823;DHT22;11074;48.596;9.238;2023-02-07T07:32:59;0.00;99.90
21823;DHT22;11074;48.596;9.238;2023-02-07T07:35:24;0.00;99.90
21823;DHT22;11074;48.596;9.238;2023-02-07T07:37:50;0.10;99.90
21823;DHT22;11074;48.596;9.238;2023-02-07T07:40:15;0.10;99.90
21823;DHT22;11074;48.596;9.238;2023-02-07T07:42:41;0.10;99.90
21823;DHT22;11074;48.596;9.238;2023-02-07T07:45:07;0.10;99.90
21823;DHT22;11074;48.596;9.238;2023-02-07T07:47:35;0.20;99.90
21823;DHT22;11074;48.596;9.238;2023-02-07T07:50:01;0.20;99.90
21823;DHT22;11074;48.596;9.238;2023-02-07T07:52:26;0.10;99.90
21823;DHT22;11074;48.596;9.238;2023-02-07T07:54:52;0.00;99.90
21823;DHT22;11074;48.596;9.238;2023-02-07T07:57:18;0.10;99.90
21823;DHT22;11074;48.596;9.238;2023-02-07T07:59:43;0.10;99.90
21823;DHT22;11074;48.596;9.238;2023-02-07T08:02:11;0.10;99.90
21823;DHT22;11074;48.596;9.238;2023-02-07T08:04:37;0.10;99.90
21823;DHT22;11074;48.596;9.238;2023-02-07T08:07:03;0.20;99.90
21823;DHT22;11074;48.596;9.238;2023-02-07T08:09:28;0.20;99.90
21823;DHT22;11074;48.596;9.238;2023-02-07T08:11:54;0.30;99.90
21823;DHT22;11074;48.596;9.238;2023-02-07T08:14:20;0.30;99.90
21823;DHT22;11074;48.596;9.238;2023-02-07T08:16:45;0.30;99.90
21823;DHT22;11074;48.596;9.238;2023-02-07T08:19:11;0.40;99.90
21823;DHT22;11074;48.596;9.238;2023-02-07T08:21:37;0.40;99.90
21823;DHT22;11074;48.596;9.238;2023-02-07T08:24:02;0.40;99.90
21823;DHT22;11074;48.596;9.238;2023-02-07T08:26:28;0.50;99.90
21823;DHT22;11074;48.596;9.238;2023-02-07T08:28:54;0.40;99.90
21823;DHT22;11074;48.596;9.238;2023-02-07T08:31:19;0.40;99.90
21823;DHT22;11074;48.596;9.238;2023-02-07T08:33:45;0.40;99.90
21823;DHT22;11074;48.596;9.238;2023-02-07T08:36:11;0.40;99.90
21823;DHT22;11074;48.596;9.238;2023-02-07T08:38:37;0.50;99.90
21823;DHT22;11074;48.596;9.238;2023-02-07T08:41:03;0.50;99.90
21823;DHT22;11074;48.596;9.238;2023-02-07T08:43:29;0.50;99.90
21823;DHT22;11074;48.596;9.238;2023-02-07T08:45:55;0.60;99.90
21823;DHT22;11074;48.596;9.238;2023-02-07T08:48:22;0.60;99.90
21823;DHT22;11074;48.596;9.238;2023-02-07T08:50:47;0.50;99.90
21823;DHT22;11074;48.596;9.238;2023-02-07T08:53:13;0.60;99.90
21823;DHT22;11074;48.596;9.238;2023-02-07T08:55:39;0.60;99.90
21823;DHT22;11074;48.596;9.238;2023-02-07T08:58:06;0.60;99.90
21823;DHT22;11074;48.596;9.238;2023-02-07T09:00:32;0.60;99.90
21823;DHT22;11074;48.596;9.238;2023-02-07T09:03:00;0.70;99.90
21823;DHT22;11074;48.596;9.238;2023-02-07T09:05:27;0.70;99.90
21823;DHT22;11074;48.596;9.238;2023-02-07T09:07:52;0.80;99.90
21823;DHT22;11074;48.596;9.238;2023-02-07T09:10:18;0.80;99.90
21823;DHT22;11074;48.596;9.238;2023-02-07T09:12:44;0.90;99.90
21823;DHT22;11074;48.596;9.238;2023-02-07T09:15:09;0.90;99.90
21823;DHT22;11074;48.596;9.238;2023-02-07T09:17:35;1.00;99.90
21823;DHT22;11074;48.596;9.238;2023-02-07T09:20:01;1.00;99.90
21823;DHT22;11074;48.596;9.238;2023-02-07T09:22:27;1.00;99.90
21823;DHT22;11074;48.596;9.238;2023-02-07T09:24:52;1.10;99.90
21823;DHT22;11074;48.596;9.238;2023-02-07T09:27:18;1.20;99.90
21823;DHT22;11074;48.596;9.238;2023-02-07T09:29:44;1.20;99.90
21823;DHT22;11074;48.596;9.238;2023-02-07T09:32:10;1.20;99.90
21823;DHT22;11074;48.596;9.238;2023-02-07T09:34:35;1.30;99.90
21823;DHT22;11074;48.596;9.238;2023-02-07T09:37:01;1.30;99.90
21823;DHT22;11074;48.596;9.238;2023-02-07T09:39:26;1.30;99.90
21823;DHT22;11074;48.596;9.238;2023-02-07T09:47:22;1.40;99.90
21823;DHT22;11074;48.596;9.238;2023-02-07T09:50:05;1.40;99.90
21823;DHT22;11074;48.596;9.238;2023-02-07T09:52:45;1.50;99.90
21823;DHT22;11074;48.596;9.238;2023-02-07T09:55:17;1.50;99.90
21823;DHT22;11074;48.596;9.238;2023-02-07T09:57:51;1.50;99.90
21823;DHT22;11074;48.596;9.238;2023-02-07T10:00:28;1.50;99.90
21823;DHT22;11074;48.596;9.238;2023-02-07T10:05:57;1.50;99.90
21823;DHT22;11074;48.596;9.238;2023-02-07T10:08:26;1.60;99.90
21823;DHT22;11074;48.596;9.238;2023-02-07T10:11:18;1.60;99.90
21823;DHT22;11074;48.596;9.238;2023-02-07T10:16:38;1.60;99.90
21823;DHT22;11074;48.596;9.238;2023-02-07T10:22:01;1.70;99.90
21823;DHT22;11074;48.596;9.238;2023-02-07T10:30:34;1.90;99.90
21823;DHT22;11074;48.596;9.238;2023-02-07T10:35:51;1.80;99.90
21823;DHT22;11074;48.596;9.238;2023-02-07T10:38:32;1.80;99.90
21823;DHT22;11074;48.596;9.238;2023-02-07T10:41:12;1.90;99.90
21823;DHT22;11074;48.596;9.238;2023-02-07T10:43:44;1.90;99.90
21823;DHT22;11074;48.596;9.238;2023-02-07T10:46:13;2.00;99.90
21823;DHT22;11074;48.596;9.238;2023-02-07T10:48:42;2.00;99.90
21823;DHT22;11074;48.596;9.238;2023-02-07T10:54:08;2.00;99.90
21823;DHT22;11074;48.596;9.238;2023-02-07T10:57:01;2.00;99.90
21823;DHT22;11074;48.596;9.238;2023-02-07T11:04:53;2.20;99.90
21823;DHT22;11074;48.596;9.238;2023-02-07T11:07:20;2.20;99.90
21823;DHT22;11074;48.596;9.238;2023-02-07T11:09:48;2.20;99.90
21823;DHT22;11074;48.596;9.238;2023-02-07T11:12:19;2.30;99.90
21823;DHT22;11074;48.596;9.238;2023-02-07T11:17:27;2.20;99.90
21823;DHT22;11074;48.596;9.238;2023-02-07T11:19:53;2.20;99.90
21823;DHT22;11074;48.596;9.238;2023-02-07T11:22:21;2.30;99.90
21823;DHT22;11074;48.596;9.238;2023-02-07T11:24:51;2.30;99.90
21823;DHT22;11074;48.596;9.238;2023-02-07T11:27:24;2.30;99.90
21823;DHT22;11074;48.596;9.238;2023-02-07T11:29:58;2.40;99.90
21823;DHT22;11074;48.596;9.238;2023-02-07T11:32:28;2.40;99.90
21823;DHT22;11074;48.596;9.238;2023-02-07T11:34:56;2.50;99.90
21823;DHT22;11074;48.596;9.238;2023-02-07T11:40:36;2.60;99.90
21823;DHT22;11074;48.596;9.238;2023-02-07T11:43:19;2.70;99.90
21823;DHT22;11074;48.596;9.238;2023-02-07T11:46:00;2.60;99.90
21823;DHT22;11074;48.596;9.238;2023-02-07T11:48:35;2.70;99.90
21823;DHT22;11074;48.596;9.238;2023-02-07T11:51:06;2.80;99.90
21823;DHT22;11074;48.596;9.238;2023-02-07T11:56:05;2.90;99.90
21823;DHT22;11074;48.596;9.238;2023-02-07T11:58:34;2.90;99.90
21823;DHT22;11074;48.596;9.238;2023-02-07T12:01:04;3.00;99.90
21823;DHT22;11074;48.596;9.238;2023-02-07T12:04:27;3.10;99.90
21823;DHT22;11074;48.596;9.238;2023-02-07T12:06:42;3.20;99.90
21823;DHT22;11074;48.596;9.238;2023-02-07T12:09:33;3.30;99.90
21823;DHT22;11074;48.596;9.238;2023-02-07T12:12:36;3.40;99.90
21823;DHT22;11074;48.596;9.238;2023-02-07T12:15:20;3.50;99.90
21823;DHT22;11074;48.596;9.238;2023-02-07T12:18:00;3.50;99.90
21823;DHT22;11074;48.596;9.238;2023-02-07T12:30:02;4.00;99.90
21823;DHT22;11074;48.596;9.238;2023-02-07T12:35:27;4.40;99.90
21823;DHT22;11074;48.596;9.238;2023-02-07T12:41:21;4.60;99.90
21823;DHT22;11074;48.596;9.238;2023-02-07T12:46:58;4.80;99.90
21823;DHT22;11074;48.596;9.238;2023-02-07T12:53:03;5.10;99.90
21823;DHT22;11074;48.596;9.238;2023-02-07T13:01:47;5.50;99.90
21823;DHT22;11074;48.596;9.238;2023-02-07T13:04:28;5.60;99.90
21823;DHT22;11074;48.596;9.238;2023-02-07T13:13:26;5.90;99.90
21823;DHT22;11074;48.596;9.238;2023-02-07T13:21:45;6.00;99.90
21823;DHT22;11074;48.596;9.238;2023-02-07T13:24:22;6.10;99.90
21823;DHT22;11074;48.596;9.238;2023-02-07T13:26:54;6.20;99.90
21823;DHT22;11074;48.596;9.238;2023-02-07T13:29:23;6.30;99.90
21823;DHT22;11074;48.596;9.238;2023-02-07T13:31:55;6.30;99.90
21823;DHT22;11074;48.596;9.238;2023-02-07T13:34:31;6.40;99.90
21823;DHT22;11074;48.596;9.238;2023-02-07T13:37:04;6.30;99.90
21823;DHT22;11074;48.596;9.238;2023-02-07T13:43:06;6.40;99.90
21823;DHT22;11074;48.596;9.238;2023-02-07T13:45:56;6.60;99.90
21823;DHT22;11074;48.596;9.238;2023-02-07T13:52:03;6.90;99.90
21823;DHT22;11074;48.596;9.238;2023-02-07T14:00:20;7.10;99.90
21823;DHT22;11074;48.596;9.238;2023-02-07T14:02:52;7.00;99.90
21823;DHT22;11074;48.596;9.238;2023-02-07T14:05:29;7.30;99.90
21823;DHT22;11074;48.596;9.238;2023-02-07T14:08:00;7.60;99.90
21823;DHT22;11074;48.596;9.238;2023-02-07T14:10:48;8.10;99.90
21823;DHT22;11074;48.596;9.238;2023-02-07T14:13:33;8.70;99.90
21823;DHT22;11074;48.596;9.238;2023-02-07T14:16:06;9.60;99.90
21823;DHT22;11074;48.596;9.238;2023-02-07T14:18:46;10.40;99.90
21823;DHT22;11074;48.596;9.238;2023-02-07T14:21:22;11.00;99.90
21823;DHT22;11074;48.596;9.238;2023-02-07T14:24:15;11.70;99.90
21823;DHT22;11074;48.596;9.238;2023-02-07T14:26:57;12.50;99.90
21823;DHT22;11074;48.596;9.238;2023-02-07T14:32:00;13.80;99.90
21823;DHT22;11074;48.596;9.238;2023-02-07T14:37:52;14.70;99.90
21823;DHT22;11074;48.596;9.238;2023-02-07T14:40:27;14.90;99.90
21823;DHT22;11074;48.596;9.238;2023-02-07T14:43:00;14.90;98.30
21823;DHT22;11074;48.596;9.238;2023-02-07T14:45:33;15.10;97.50
21823;DHT22;11074;48.596;9.238;2023-02-07T14:48:01;15.10;96.80
21823;DHT22;11074;48.596;9.238;2023-02-07T14:50:51;15.00;97.10
21823;DHT22;11074;48.596;9.238;2023-02-07T14:53:18;15.10;96.40
21823;DHT22;11074;48.596;9.238;2023-02-07T14:55:51;15.00;95.60
21823;DHT22;11074;48.596;9.238;2023-02-07T14:58:25;14.80;95.50
21823;DHT22;11074;48.596;9.238;2023-02-07T15:00:57;14.50;96.60
21823;DHT22;11074;48.596;9.238;2023-02-07T15:03:28;13.90;96.40
21823;DHT22;11074;48.596;9.238;2023-02-07T15:06:02;13.30;95.70
21823;DHT22;11074;48.596;9.238;2023-02-07T15:08:58;12.60;96.80
21823;DHT22;11074;48.596;9.238;2023-02-07T15:11:26;11.90;96.90
21823;DHT22;11074;48.596;9.238;2023-02-07T15:13:59;11.60;97.10
21823;DHT22;11074;48.596;9.238;2023-02-07T15:16:30;11.30;97.10
21823;DHT22;11074;48.596;9.238;2023-02-07T15:19:09;11.00;97.90
21823;DHT22;11074;48.596;9.238;2023-02-07T15:21:44;10.40;98.50
21823;DHT22;11074;48.596;9.238;2023-02-07T15:24:29;9.50;99.10
21823;DHT22;11074;48.596;9.238;2023-02-07T15:27:02;8.50;99.90
21823;DHT22;11074;48.596;9.238;2023-02-07T15:29:36;7.70;99.90
21823;DHT22;11074;48.596;9.238;2023-02-07T15:32:22;7.30;99.90
21823;DHT22;11074;48.596;9.238;2023-02-07T15:34:54;7.10;99.90
21823;DHT22;11074;48.596;9.238;2023-02-07T15:37:23;6.90;99.90
21823;DHT22;11074;48.596;9.238;2023-02-07T15:39:55;6.50;99.90
21823;DHT22;11074;48.596;9.238;2023-02-07T15:42:21;6.30;99.90
21823;DHT22;11074;48.596;9.238;2023-02-07T15:47:33;6.00;99.90
21823;DHT22;11074;48.596;9.238;2023-02-07T15:50:04;5.80;99.90
21823;DHT22;11074;48.596;9.238;2023-02-07T15:52:39;5.70;99.90
21823;DHT22;11074;48.596;9.238;2023-02-07T15:55:33;5.50;99.90
21823;DHT22;11074;48.596;9.238;2023-02-07T15:58:03;5.40;99.90
21823;DHT22;11074;48.596;9.238;2023-02-07T16:00:35;5.20;99.90
21823;DHT22;11074;48.596;9.238;2023-02-07T16:03:11;5.10;99.90
21823;DHT22;11074;48.596;9.238;2023-02-07T16:05:42;5.10;99.90
21823;DHT22;11074;48.596;9.238;2023-02-07T16:08:48;5.00;99.90
21823;DHT22;11074;48.596;9.238;2023-02-07T16:16:55;4.80;99.90
21823;DHT22;11074;48.596;9.238;2023-02-07T16:19:28;4.70;99.90
21823;DHT22;11074;48.596;9.238;2023-02-07T16:22:07;4.60;99.90
21823;DHT22;11074;48.596;9.238;2023-02-07T16:24:39;4.60;99.90
21823;DHT22;11074;48.596;9.238;2023-02-07T16:27:17;4.60;99.90
21823;DHT22;11074;48.596;9.238;2023-02-07T16:29:45;4.50;99.90
21823;DHT22;11074;48.596;9.238;2023-02-07T16:32:12;4.50;99.90
21823;DHT22;11074;48.596;9.238;2023-02-07T16:34:39;4.50;99.90
21823;DHT22;11074;48.596;9.238;2023-02-07T16:37:06;4.40;99.90
21823;DHT22;11074;48.596;9.238;2023-02-07T16:39:34;4.40;99.90
21823;DHT22;11074;48.596;9.238;2023-02-07T16:42:02;4.40;99.90
21823;DHT22;11074;48.596;9.238;2023-02-07T16:44:37;4.30;99.90
21823;DHT22;11074;48.596;9.238;2023-02-07T16:47:03;4.30;99.90
21823;DHT22;11074;48.596;9.238;2023-02-07T16:49:30;4.20;99.90
21823;DHT22;11074;48.596;9.238;2023-02-07T16:51:57;4.20;99.90
21823;DHT22;11074;48.596;9.238;2023-02-07T16:54:23;4.20;99.90
21823;DHT22;11074;48.596;9.238;2023-02-07T16:56:52;4.10;99.90
21823;DHT22;11074;48.596;9.238;2023-02-07T16:59:20;4.10;99.90
21823;DHT22;11074;48.596;9.238;2023-02-07T17:01:49;4.10;99.90
21823;DHT22;11074;48.596;9.238;2023-02-07T17:04:16;4.00;99.90
21823;DHT22;11074;48.596;9.238;2023-02-07T17:06:43;4.00;99.90
21823;DHT22;11074;48.596;9.238;2023-02-07T17:09:20;4.00;99.90
21823;DHT22;11074;48.596;9.238;2023-02-07T17:11:48;3.90;99.90
21823;DHT22;11074;48.596;9.238;2023-02-07T17:14:14;3.90;99.90
21823;DHT22;11074;48.596;9.238;2023-02-07T17:16:40;3.90;99.90
21823;DHT22;11074;48.596;9.238;2023-02-07T17:19:11;3.80;99.90
21823;DHT22;11074;48.596;9.238;2023-02-07T17:21:43;3.70;99.90
21823;DHT22;11074;48.596;9.238;2023-02-07T17:24:10;3.80;99.90
21823;DHT22;11074;48.596;9.238;2023-02-07T17:26:37;3.70;99.90
21823;DHT22;11074;48.596;9.238;2023-02-07T17:29:05;3.70;99.90
21823;DHT22;11074;48.596;9.238;2023-02-07T17:31:31;3.70;99.90
21823;DHT22;11074;48.596;9.238;2023-02-07T17:33:57;3.70;99.90
21823;DHT22;11074;48.596;9.238;2023-02-07T17:36:23;3.60;99.90
21823;DHT22;11074;48.596;9.238;2023-02-07T17:38:49;3.60;99.90
21823;DHT22;11074;48.596;9.238;2023-02-07T17:41:18;3.50;99.90
21823;DHT22;11074;48.596;9.238;2023-02-07T17:43:45;3.40;99.90
21823;DHT22;11074;48.596;9.238;2023-02-07T17:46:18;3.20;99.90
21823;DHT22;11074;48.596;9.238;2023-02-07T17:48:46;3.00;99.90
21823;DHT22;11074;48.596;9.238;2023-02-07T17:51:16;2.90;99.90
21823;DHT22;11074;48.596;9.238;2023-02-07T17:53:44;3.00;99.90
21823;DHT22;11074;48.596;9.238;2023-02-07T17:56:21;2.90;99.90
21823;DHT22;11074;48.596;9.238;2023-02-07T17:58:50;3.00;99.90
21823;DHT22;11074;48.596;9.238;2023-02-07T18:01:17;2.90;99.90
21823;DHT22;11074;48.596;9.238;2023-02-07T18:03:48;3.00;99.90
21823;DHT22;11074;48.596;9.238;2023-02-07T18:06:17;3.10;99.90
21823;DHT22;11074;48.596;9.238;2023-02-07T18:08:45;3.10;99.90
21823;DHT22;11074;48.596;9.238;2023-02-07T18:11:11;3.10;99.90
21823;DHT22;11074;48.596;9.238;2023-02-07T18:13:43;3.10;99.90
21823;DHT22;11074;48.596;9.238;2023-02-07T18:16:18;3.10;99.90
21823;DHT22;11074;48.596;9.238;2023-02-07T18:18:49;3.10;99.90